Time;durP1;ratioP1;P1;durP2;ratioP2;P2;SDS_P1;SDS_P2;PMS_P1;PMS_P2;Temp;Humidity;BMP_temperature;BMP_pressure;BME280_temperature;BME280_humidity;BME280_pressure;Samples;Min_cycle;Max_cycle;Signal;HPM_P1;HPM_P2
2021/10/28 00:13:01;;;;;;;3.55;3.17;;;14.00;96.70;;;;;;4953154;28;20046;-75
2021/10/28 00:15:37;;;;;;;7.00;3.33;;;14.00;96.70;;;;;;4939686;29;20504;-74
2021/10/28 00:18:11;;;;;;;5.82;3.08;;;13.90;96.70;;;;;;4942174;28;20047;-74
2021/10/28 00:20:42;;;;;;;5.22;3.10;;;13.90;96.70;;;;;;4938899;28;20074;-75
2021/10/28 00:23:10;;;;;;;5.85;3.35;;;13.90;96.70;;;;;;4924764;29;20134;-74
2021/10/28 00:25:39;;;;;;;5.95;3.30;;;13.90;96.70;;;;;;4940437;28;20057;-75
2021/10/28 00:28:09;;;;;;;6.40;3.30;;;13.70;96.70;;;;;;4933531;29;20122;-74
2021/10/28 00:30:37;;;;;;;4.68;3.55;;;13.60;96.70;;;;;;4938979;29;20046;-74
2021/10/28 00:33:06;;;;;;;3.92;3.15;;;13.60;96.70;;;;;;4941663;28;20141;-74
2021/10/28 00:35:35;;;;;;;5.25;3.40;;;13.60;96.70;;;;;;4931123;29;20130;-74
2021/10/28 00:38:05;;;;;;;3.95;3.33;;;13.60;96.70;;;;;;4936780;28;20142;-74
2021/10/28 00:40:33;;;;;;;5.70;3.35;;;13.50;96.70;;;;;;4924453;29;20432;-74
2021/10/28 00:43:02;;;;;;;4.00;3.42;;;13.50;96.70;;;;;;4943464;28;20145;-74
2021/10/28 00:45:30;;;;;;;6.00;3.83;;;13.50;96.70;;;;;;4937473;28;20058;-74
2021/10/28 00:47:59;;;;;;;4.57;3.58;;;13.50;96.70;;;;;;4943173;28;20047;-74
2021/10/28 00:50:27;;;;;;;6.00;3.30;;;13.50;96.70;;;;;;4938516;29;20137;-75
2021/10/28 00:52:56;;;;;;;5.35;3.00;;;13.60;96.70;;;;;;4941271;28;20390;-74
2021/10/28 00:55:26;;;;;;;3.75;3.33;;;13.60;96.70;;;;;;4940124;29;20054;-74
2021/10/28 00:57:55;;;;;;;6.88;3.67;;;13.50;96.70;;;;;;4936925;29;20067;-74
2021/10/28 01:00:24;;;;;;;5.25;3.28;;;13.40;96.70;;;;;;4920910;29;20501;-74
2021/10/28 01:02:52;;;;;;;4.03;3.22;;;13.30;96.70;;;;;;4935615;28;20047;-74
2021/10/28 01:05:20;;;;;;;5.30;3.20;;;13.40;96.70;;;;;;4932240;29;20067;-74
2021/10/28 01:07:49;;;;;;;4.47;3.40;;;13.30;96.70;;;;;;4940096;28;20081;-75
2021/10/28 01:10:17;;;;;;;5.47;3.20;;;13.20;96.70;;;;;;4941226;29;20597;-74
2021/10/28 01:12:46;;;;;;;5.32;3.30;;;13.20;96.70;;;;;;4938928;28;20085;-74
2021/10/28 01:15:16;;;;;;;4.22;3.22;;;13.20;96.70;;;;;;4939791;29;20535;-74
2021/10/28 01:17:44;;;;;;;4.72;3.08;;;13.30;96.70;;;;;;4934260;29;20518;-74
2021/10/28 01:20:13;;;;;;;4.97;3.45;;;13.30;96.70;;;;;;4939691;28;20043;-74
2021/10/28 01:22:43;;;;;;;4.43;3.33;;;13.30;96.70;;;;;;4939377;28;20124;-74
2021/10/28 01:25:12;;;;;;;4.75;3.08;;;13.30;96.70;;;;;;4941606;29;20063;-74
2021/10/28 01:27:40;;;;;;;5.47;2.90;;;13.30;96.70;;;;;;4935394;29;20274;-75
2021/10/28 01:30:08;;;;;;;4.70;2.75;;;13.30;96.70;;;;;;4940841;29;20093;-75
2021/10/28 01:32:37;;;;;;;5.90;3.15;;;13.30;96.70;;;;;;4926739;29;20046;-74
2021/10/28 01:35:05;;;;;;;5.45;2.90;;;13.40;96.70;;;;;;4945987;29;20411;-75
2021/10/28 01:37:41;;;;;;;3.78;2.67;;;13.40;96.70;;;;;;4938726;28;20059;-75
2021/10/28 01:40:11;;;;;;;3.85;2.63;;;13.20;96.70;;;;;;4937746;29;20651;-74
2021/10/28 01:42:44;;;;;;;6.13;3.28;;;13.00;96.70;;;;;;4918597;29;20390;-74
2021/10/28 01:45:13;;;;;;;4.68;3.22;;;12.90;96.70;;;;;;4933329;29;20150;-75
2021/10/28 01:47:41;;;;;;;5.43;3.28;;;12.90;96.70;;;;;;4944668;29;20075;-75
2021/10/28 01:50:11;;;;;;;3.45;3.15;;;13.00;96.70;;;;;;4943816;28;20050;-74
2021/10/28 01:52:41;;;;;;;4.82;3.28;;;12.90;96.70;;;;;;4940525;28;20445;-74
2021/10/28 01:55:11;;;;;;;4.53;3.60;;;12.80;96.70;;;;;;4944454;29;20050;-75
2021/10/28 01:57:41;;;;;;;5.25;3.22;;;12.70;96.70;;;;;;4939535;28;20048;-74
2021/10/28 02:00:14;;;;;;;3.92;3.00;;;12.70;96.70;;;;;;4946632;29;20086;-75
2021/10/28 02:02:45;;;;;;;3.90;2.80;;;12.70;96.70;;;;;;4939695;29;20654;-74
2021/10/28 02:05:14;;;;;;;5.05;3.42;;;12.60;96.70;;;;;;4938221;29;20497;-74
2021/10/28 02:07:45;;;;;;;5.35;3.03;;;12.60;96.70;;;;;;4921741;29;20134;-74
2021/10/28 02:10:14;;;;;;;4.60;3.08;;;12.50;96.70;;;;;;4944608;29;20077;-75
2021/10/28 02:12:42;;;;;;;3.35;2.90;;;12.40;96.70;;;;;;4941718;28;21331;-75
2021/10/28 02:15:15;;;;;;;3.75;2.75;;;12.20;96.70;;;;;;4940515;29;20181;-74
2021/10/28 02:17:43;;;;;;;4.07;2.90;;;12.30;96.70;;;;;;4939057;28;20450;-74
2021/10/28 02:20:13;;;;;;;5.53;3.05;;;12.40;96.70;;;;;;4940043;29;20039;-74
2021/10/28 02:22:44;;;;;;;10.25;4.50;;;12.50;96.70;;;;;;4938850;28;20059;-74
2021/10/28 02:25:13;;;;;;;5.13;3.08;;;12.40;96.70;;;;;;4942940;29;20043;-74
2021/10/28 02:27:51;;;;;;;5.15;3.15;;;12.50;96.70;;;;;;4944521;28;20390;-74
2021/10/28 02:30:20;;;;;;;4.90;3.08;;;12.60;96.70;;;;;;4940393;28;20067;-74
2021/10/28 02:32:52;;;;;;;3.65;2.78;;;12.60;96.70;;;;;;4936174;29;20569;-75
2021/10/28 02:35:20;;;;;;;4.60;2.97;;;12.60;96.70;;;;;;4940195;29;20501;-74
2021/10/28 02:37:50;;;;;;;4.78;2.88;;;12.60;96.70;;;;;;4942260;28;20055;-74
2021/10/28 02:40:18;;;;;;;4.22;2.80;;;12.50;96.70;;;;;;4941433;29;20149;-74
2021/10/28 02:42:46;;;;;;;5.25;2.47;;;12.50;96.70;;;;;;4941507;28;20067;-75
2021/10/28 02:45:14;;;;;;;3.65;2.75;;;12.50;96.70;;;;;;4940702;29;20154;-74
2021/10/28 02:47:42;;;;;;;4.57;2.95;;;12.40;96.70;;;;;;4942509;28;20127;-74
2021/10/28 02:50:11;;;;;;;5.45;3.33;;;12.30;96.70;;;;;;4940621;29;20062;-75
2021/10/28 02:52:41;;;;;;;6.63;3.60;;;12.30;96.70;;;;;;4943661;29;20586;-74
2021/10/28 02:55:10;;;;;;;4.60;2.80;;;12.20;96.70;;;;;;4930969;29;20071;-74
2021/10/28 02:57:41;;;;;;;4.82;2.70;;;12.20;96.70;;;;;;4941121;28;20055;-74
2021/10/28 03:00:10;;;;;;;4.97;3.17;;;12.30;96.70;;;;;;4939389;28;20058;-75
2021/10/28 03:02:39;;;;;;;4.30;3.33;;;12.40;96.70;;;;;;4942813;28;20071;-74
2021/10/28 03:05:09;;;;;;;5.45;3.55;;;12.30;96.70;;;;;;4940501;28;20050;-75
2021/10/28 03:07:38;;;;;;;5.05;3.30;;;12.30;96.70;;;;;;4942083;29;20451;-74
2021/10/28 03:10:09;;;;;;;5.63;3.15;;;12.30;96.70;;;;;;4941034;29;20043;-75
2021/10/28 03:12:41;;;;;;;4.22;3.38;;;12.40;96.70;;;;;;4947639;28;20042;-75
2021/10/28 03:15:12;;;;;;;4.20;3.42;;;12.40;96.70;;;;;;4935946;29;20035;-74
2021/10/28 03:26:05;;;;;;;4.43;3.30;;;12.50;96.70;;;;;;4924273;28;20150;-74
2021/10/28 03:28:35;;;;;;;5.80;3.33;;;12.40;96.70;;;;;;4943445;28;20663;-74
2021/10/28 03:31:08;;;;;;;4.53;3.70;;;12.40;96.70;;;;;;4943322;28;20082;-74
2021/10/28 03:33:38;;;;;;;4.88;3.60;;;12.40;96.70;;;;;;4934539;29;20106;-74
2021/10/28 03:36:17;;;;;;;5.10;3.30;;;12.40;96.70;;;;;;4942037;29;20405;-74
2021/10/28 03:48:10;;;;;;;6.38;3.53;;;12.20;96.70;;;;;;4921194;29;20047;-74
2021/10/28 04:31:01;;;;;;;5.93;4.40;;;11.70;96.70;;;;;;4937895;29;20047;-74
2021/10/28 04:33:31;;;;;;;7.65;4.40;;;11.70;96.70;;;;;;4937297;29;20048;-74
2021/10/28 04:35:59;;;;;;;8.10;4.57;;;11.70;96.70;;;;;;4929285;28;20521;-74
2021/10/28 04:38:26;;;;;;;6.78;3.88;;;11.70;96.70;;;;;;4941037;29;20063;-74
2021/10/28 04:40:55;;;;;;;8.07;4.38;;;11.80;96.70;;;;;;4939494;28;20039;-74
2021/10/28 04:43:22;;;;;;;5.38;4.10;;;11.60;96.70;;;;;;4942957;28;20105;-75
2021/10/28 04:45:50;;;;;;;7.47;4.03;;;11.60;96.70;;;;;;4937669;29;20035;-74
2021/10/28 04:48:18;;;;;;;6.70;4.50;;;11.80;96.70;;;;;;4931794;29;20043;-74
2021/10/28 04:50:48;;;;;;;7.85;4.05;;;11.70;96.70;;;;;;4928363;29;20054;-74
2021/10/28 04:53:16;;;;;;;6.10;4.13;;;11.50;96.70;;;;;;4939957;28;20479;-74
2021/10/28 04:55:44;;;;;;;5.18;4.07;;;11.50;96.70;;;;;;4938015;28;20043;-74
2021/10/28 04:58:12;;;;;;;7.22;4.20;;;11.50;96.70;;;;;;4945087;28;20040;-73
2021/10/28 05:00:40;;;;;;;7.68;4.70;;;11.50;96.70;;;;;;4940530;29;20072;-74
2021/10/28 05:03:08;;;;;;;8.90;5.00;;;11.60;96.70;;;;;;4937608;29;20493;-73
2021/10/28 05:05:36;;;;;;;5.60;4.35;;;11.60;96.70;;;;;;4934095;28;20044;-73
2021/10/28 05:08:06;;;;;;;6.35;4.43;;;11.50;96.70;;;;;;4944122;28;20067;-73
2021/10/28 05:10:34;;;;;;;8.07;4.70;;;11.60;96.70;;;;;;4942025;29;20799;-73
2021/10/28 05:13:02;;;;;;;6.50;4.47;;;11.60;96.70;;;;;;4944534;28;20126;-73
2021/10/28 05:15:30;;;;;;;6.82;4.60;;;11.60;96.70;;;;;;4943589;29;20097;-73
2021/10/28 05:17:58;;;;;;;9.98;4.85;;;11.60;96.70;;;;;;4941646;29;20528;-74
2021/10/28 05:20:26;;;;;;;9.45;4.95;;;11.50;96.70;;;;;;4942068;29;20166;-73
2021/10/28 05:22:54;;;;;;;11.75;5.13;;;11.30;96.70;;;;;;4937439;29;20133;-72
2021/10/28 05:25:24;;;;;;;6.18;5.13;;;11.20;96.70;;;;;;4941610;29;20031;-73
2021/10/28 05:27:52;;;;;;;6.55;4.90;;;11.20;96.70;;;;;;4941578;28;20048;-73
2021/10/28 05:30:20;;;;;;;8.48;5.10;;;11.10;96.70;;;;;;4944694;29;20051;-74
2021/10/28 05:32:48;;;;;;;6.90;4.88;;;11.10;96.70;;;;;;4942760;28;20044;-73
2021/10/28 05:35:17;;;;;;;8.23;5.30;;;11.10;96.70;;;;;;4935806;29;20050;-79
2021/10/28 05:37:45;;;;;;;9.90;5.38;;;11.10;96.70;;;;;;4942321;28;20142;-79
2021/10/28 05:40:14;;;;;;;8.00;5.35;;;11.20;96.70;;;;;;4941463;29;20043;-78
2021/10/28 05:42:48;;;;;;;11.88;5.65;;;11.10;96.70;;;;;;4941810;28;20044;-79
2021/10/28 05:45:16;;;;;;;9.38;5.88;;;11.10;96.70;;;;;;4915966;29;20043;-79
2021/10/28 05:47:44;;;;;;;10.73;5.88;;;11.20;96.70;;;;;;4936899;29;20043;-79
2021/10/28 05:50:23;;;;;;;10.38;5.78;;;11.10;96.70;;;;;;4938980;29;20142;-79
2021/10/28 05:52:53;;;;;;;9.93;5.55;;;11.10;96.70;;;;;;4943277;28;20599;-77
2021/10/28 05:55:23;;;;;;;8.43;5.60;;;11.10;96.70;;;;;;4940967;28;20503;-77
2021/10/28 05:57:53;;;;;;;10.25;6.22;;;11.20;96.70;;;;;;4938762;28;20043;-78
2021/10/28 06:00:24;;;;;;;8.90;5.68;;;11.20;96.70;;;;;;4946295;29;20500;-77
2021/10/28 06:02:52;;;;;;;8.45;5.85;;;11.20;96.70;;;;;;4943380;28;20050;-77
2021/10/28 06:05:20;;;;;;;8.68;5.82;;;11.20;96.70;;;;;;4944499;29;20046;-77
2021/10/28 06:07:48;;;;;;;9.00;5.57;;;11.20;96.70;;;;;;4938534;29;20495;-77
2021/10/28 06:10:17;;;;;;;7.03;5.25;;;11.20;96.70;;;;;;4944117;29;20047;-78
2021/10/28 06:12:48;;;;;;;6.88;5.65;;;11.20;96.70;;;;;;4940866;28;20050;-78
2021/10/28 06:15:19;;;;;;;9.77;6.03;;;11.10;96.70;;;;;;4935221;29;20928;-78
2021/10/28 06:20:17;;;;;;;8.60;5.57;;;11.30;96.70;;;;;;4939168;29;20450;-79
2021/10/28 06:22:44;;;;;;;11.57;5.88;;;11.30;96.70;;;;;;4920756;29;20043;-77
2021/10/28 06:25:13;;;;;;;8.73;5.32;;;11.30;96.70;;;;;;4941840;28;20529;-79
2021/10/28 06:27:41;;;;;;;10.68;5.82;;;11.30;96.70;;;;;;4943254;28;20179;-79
2021/10/28 06:30:10;;;;;;;8.75;6.15;;;11.30;96.70;;;;;;4942394;28;20043;-77
2021/10/28 06:32:44;;;;;;;7.65;5.65;;;11.40;96.70;;;;;;4940523;28;20126;-77
2021/10/28 06:35:12;;;;;;;9.38;5.75;;;11.40;96.70;;;;;;4938160;29;20055;-78
2021/10/28 06:37:45;;;;;;;10.57;7.03;;;11.50;96.70;;;;;;4942612;28;20461;-77
2021/10/28 06:40:14;;;;;;;12.48;7.18;;;11.50;96.70;;;;;;4937336;29;20131;-78
2021/10/28 06:42:43;;;;;;;13.82;7.47;;;11.50;96.70;;;;;;4942821;28;20032;-78
2021/10/28 06:45:11;;;;;;;15.00;8.48;;;11.60;96.70;;;;;;4941756;29;20137;-77
2021/10/28 06:47:39;;;;;;;18.27;9.35;;;11.60;96.70;;;;;;4940766;29;20050;-78
2021/10/28 06:50:14;;;;;;;21.15;9.95;;;11.50;96.70;;;;;;4941010;28;20047;-78
2021/10/28 06:52:55;;;;;;;23.67;10.27;;;11.60;96.70;;;;;;4943697;28;20573;-77
2021/10/28 06:56:23;;;;;;;18.65;9.25;;;11.70;96.70;;;;;;4941350;29;20047;-78
2021/10/28 07:03:32;;;;;;;;;;;11.90;96.70;;;;;;4943651;29;20042;-78
2021/10/28 07:06:10;;;;;;;20.63;8.40;;;12.00;96.70;;;;;;4942768;28;20030;-77
2021/10/28 07:08:43;;;;;;;16.48;8.68;;;12.00;96.70;;;;;;4937514;29;20040;-78
2021/10/28 07:11:16;;;;;;;17.48;7.88;;;12.10;96.70;;;;;;4924458;29;20055;-77
2021/10/28 07:13:48;;;;;;;14.38;7.75;;;12.20;96.70;;;;;;4938508;28;20245;-77
2021/10/28 07:16:32;;;;;;;12.77;7.30;;;12.30;96.70;;;;;;4944776;28;20043;-78
2021/10/28 07:19:13;;;;;;;14.57;8.30;;;12.30;96.70;;;;;;4941176;29;20082;-77
2021/10/28 07:24:53;;;;;;;15.48;8.73;;;12.40;96.70;;;;;;4940821;29;20122;-78
2021/10/28 07:33:08;;;;;;;15.93;8.00;;;12.60;96.70;;;;;;4936859;29;20075;-78
2021/10/28 08:19:31;;;;;;;10.50;8.18;;;13.90;96.70;;;;;;4937484;29;20142;-79
2021/10/28 08:22:39;;;;;;;10.85;7.53;;;14.00;96.70;;;;;;4936014;29;20039;-77
2021/10/28 08:30:25;;;;;;;11.13;6.65;;;14.40;96.70;;;;;;4934923;29;20481;-77
2021/10/28 08:32:55;;;;;;;14.95;7.72;;;14.50;96.70;;;;;;4939969;29;20058;-77
2021/10/28 08:35:53;;;;;;;11.88;7.75;;;14.60;96.70;;;;;;4937646;29;20641;-78
2021/10/28 08:38:22;;;;;;;12.75;7.97;;;14.70;96.70;;;;;;4941919;28;20059;-78
2021/10/28 08:40:53;;;;;;;10.98;7.85;;;14.80;96.70;;;;;;4934937;28;20049;-78
2021/10/28 08:43:26;;;;;;;10.30;7.10;;;15.00;96.70;;;;;;4940964;29;20532;-78
2021/10/28 08:45:55;;;;;;;8.65;6.88;;;15.10;96.70;;;;;;4932348;28;20047;-78
2021/10/28 08:48:26;;;;;;;10.77;7.38;;;15.20;96.70;;;;;;4938520;28;20044;-78
2021/10/28 08:51:06;;;;;;;12.88;6.30;;;15.40;96.70;;;;;;4935465;29;20043;-78
2021/10/28 08:59:36;;;;;;;11.05;6.05;;;15.60;96.70;;;;;;4938210;29;20071;-78
2021/10/28 09:24:56;;;;;;;12.07;7.22;;;16.90;96.70;;;;;;4934978;29;20051;-77
2021/10/28 09:27:33;;;;;;;9.32;6.15;;;16.90;96.70;;;;;;4939209;28;20075;-77
2021/10/28 09:32:53;;;;;;;8.82;6.45;;;17.20;96.70;;;;;;4937475;29;20047;-78
2021/10/28 09:35:32;;;;;;;9.43;6.55;;;17.20;96.70;;;;;;4936749;29;20058;-78
2021/10/28 09:45:01;;;;;;;7.47;5.43;;;17.80;96.70;;;;;;4940243;28;20047;-77
2021/10/28 09:50:23;;;;;;;7.63;5.57;;;18.20;96.70;;;;;;4939985;29;20071;-77
2021/10/28 09:53:56;;;;;;;8.70;5.40;;;18.30;96.70;;;;;;4940254;28;20519;-78
2021/10/28 09:58:46;;;;;;;7.20;5.18;;;18.60;96.70;;;;;;4937998;29;21471;-78
2021/10/28 10:01:35;;;;;;;6.95;4.57;;;18.70;96.70;;;;;;4943732;29;20062;-79
2021/10/28 10:04:08;;;;;;;9.18;4.68;;;19.00;95.30;;;;;;4942242;29;20043;-78
2021/10/28 10:06:41;;;;;;;7.10;4.90;;;19.10;95.40;;;;;;4942024;29;20051;-78
2021/10/28 10:09:12;;;;;;;9.82;5.63;;;19.10;94.60;;;;;;4936064;29;20039;-78
2021/10/28 10:11:41;;;;;;;8.98;5.15;;;19.00;94.00;;;;;;4938886;28;20075;-79
2021/10/28 10:14:12;;;;;;;10.23;5.47;;;19.10;94.60;;;;;;4942636;29;20134;-78
2021/10/28 10:16:42;;;;;;;7.63;5.32;;;19.30;94.10;;;;;;4939849;28;20397;-78
2021/10/28 10:19:13;;;;;;;7.50;5.38;;;19.50;93.40;;;;;;4943400;29;20130;-77
2021/10/28 10:21:46;;;;;;;6.32;5.05;;;19.60;92.60;;;;;;4941335;28;20595;-78
2021/10/28 10:24:21;;;;;;;8.15;5.25;;;19.70;92.80;;;;;;4943587;29;20047;-78
2021/10/28 11:31:37;;;;;;;5.03;4.10;;;20.80;90.00;;;;;;4941816;29;20054;-77
2021/10/28 12:17:17;;;;;;;3.88;2.60;;;22.30;83.40;;;;;;4937315;28;20067;-78
2021/10/28 12:27:52;;;;;;;3.50;2.65;;;22.40;82.80;;;;;;4860981;29;20065;-77
2021/10/28 12:43:24;;;;;;;4.15;2.45;;;22.40;82.40;;;;;;4862365;29;20606;-78
2021/10/28 12:46:24;;;;;;;3.45;2.25;;;22.50;82.90;;;;;;4859811;29;20057;-80
2021/10/28 12:54:06;;;;;;;6.43;4.70;;;22.60;82.00;;;;;;4877914;29;20056;-78
2021/10/28 13:02:46;;;;;;;3.80;2.70;;;22.50;82.70;;;;;;4938125;29;20039;-78
2021/10/28 13:58:04;;;;;;;2.90;2.05;;;22.60;81.20;;;;;;4885575;29;20172;-75
2021/10/28 14:30:56;;;;;;;2.40;1.60;;;22.00;84.20;;;;;;4940341;29;20077;-75
2021/10/28 15:28:38;;;;;;;7.03;3.28;;;23.10;84.90;;;;;;4942162;28;20053;-75
2021/10/28 15:36:24;;;;;;;8.55;4.97;;;21.90;87.60;;;;;;4939230;29;20043;-74
2021/10/28 15:50:34;;;;;;;8.07;5.97;;;20.70;91.00;;;;;;4952866;28;20074;-74
2021/10/28 16:23:34;;;;;;;26.27;13.15;;;19.10;96.20;;;;;;4936905;29;20117;-75
2021/10/28 16:26:03;;;;;;;23.20;13.75;;;19.10;96.10;;;;;;4940643;28;20039;-74
2021/10/28 16:28:31;;;;;;;16.30;10.75;;;19.00;96.20;;;;;;4944836;28;20054;-74
2021/10/28 16:31:02;;;;;;;17.67;9.48;;;18.90;96.70;;;;;;4940737;29;20409;-75
2021/10/28 16:33:30;;;;;;;16.05;10.70;;;18.70;96.70;;;;;;4936925;29;20053;-77
2021/10/28 16:35:58;;;;;;;15.23;8.43;;;18.60;96.70;;;;;;4938285;29;20043;-77
2021/10/28 16:38:26;;;;;;;10.45;8.35;;;18.50;96.70;;;;;;4938943;29;20051;-77
2021/10/28 16:40:54;;;;;;;14.05;10.15;;;18.50;96.70;;;;;;4939829;28;20131;-77
2021/10/28 16:43:22;;;;;;;11.32;8.18;;;18.50;96.70;;;;;;4936342;28;20497;-77
2021/10/28 16:45:51;;;;;;;14.48;7.75;;;18.50;96.70;;;;;;4937739;29;20079;-77
2021/10/28 16:48:20;;;;;;;12.43;7.85;;;18.50;96.70;;;;;;4941276;28;20043;-77
2021/10/28 16:50:48;;;;;;;10.82;7.20;;;18.50;96.70;;;;;;4938095;28;20043;-77
2021/10/28 16:53:16;;;;;;;9.88;6.93;;;18.40;96.70;;;;;;4936590;28;20409;-76
2021/10/28 16:55:58;;;;;;;12.07;7.03;;;18.40;96.70;;;;;;4930122;29;20106;-77
2021/10/28 16:58:27;;;;;;;11.52;7.13;;;18.40;96.70;;;;;;4915881;29;20063;-76
2021/10/28 17:00:55;;;;;;;10.27;6.57;;;18.30;96.70;;;;;;4941726;28;20035;-77
2021/10/28 17:03:24;;;;;;;14.65;7.15;;;18.30;96.70;;;;;;4917355;29;20043;-76
2021/10/28 17:05:52;;;;;;;10.60;6.53;;;18.20;96.70;;;;;;4940708;28;20087;-77
2021/10/28 17:08:20;;;;;;;14.77;7.03;;;18.20;96.70;;;;;;4941597;28;20138;-77
2021/10/28 17:10:48;;;;;;;9.02;6.65;;;18.20;96.70;;;;;;4934763;29;20046;-77
2021/10/28 17:13:16;;;;;;;9.63;6.85;;;18.20;96.70;;;;;;4939526;29;20050;-77
2021/10/28 17:15:44;;;;;;;14.13;7.75;;;18.10;96.70;;;;;;4939118;29;20054;-77
2021/10/28 17:18:12;;;;;;;10.98;7.05;;;18.10;96.70;;;;;;4941782;28;20051;-77
2021/10/28 17:20:42;;;;;;;11.65;7.90;;;18.00;96.70;;;;;;4940344;28;20576;-77
2021/10/28 17:23:14;;;;;;;13.15;7.05;;;17.90;96.70;;;;;;4940004;28;20050;-77
2021/10/28 17:25:51;;;;;;;15.90;9.00;;;17.90;96.70;;;;;;4939300;28;20048;-74
2021/10/28 17:28:19;;;;;;;11.05;8.43;;;17.90;96.70;;;;;;4939852;28;20290;-77
2021/10/28 17:30:47;;;;;;;13.60;8.30;;;17.90;96.70;;;;;;4939700;29;20047;-76
2021/10/28 17:33:15;;;;;;;12.07;8.55;;;17.90;96.70;;;;;;4935473;29;20043;-75
2021/10/28 17:35:44;;;;;;;13.18;8.18;;;17.80;96.70;;;;;;4938668;29;20047;-76
2021/10/28 17:38:12;;;;;;;10.77;8.25;;;17.80;96.70;;;;;;4939440;28;20047;-74
2021/10/28 17:40:40;;;;;;;11.35;8.60;;;17.70;96.70;;;;;;4935206;29;20467;-75
2021/10/28 17:43:12;;;;;;;17.20;9.27;;;17.60;96.70;;;;;;4937045;28;20035;-74
2021/10/28 17:45:41;;;;;;;14.65;9.63;;;17.60;96.70;;;;;;4940361;29;20882;-74
2021/10/28 17:48:10;;;;;;;15.30;9.45;;;17.50;96.70;;;;;;4939607;28;20113;-73
2021/10/28 17:50:38;;;;;;;22.48;15.88;;;17.30;96.70;;;;;;4939467;28;20055;-75
2021/10/28 17:53:07;;;;;;;21.20;16.25;;;17.20;96.70;;;;;;4935849;28;20055;-75
2021/10/28 17:55:35;;;;;;;24.42;16.27;;;17.30;96.70;;;;;;4940643;28;20047;-76
2021/10/28 17:58:06;;;;;;;25.60;16.05;;;17.30;96.70;;;;;;4938269;28;20078;-75
2021/10/28 18:00:35;;;;;;;24.42;16.85;;;17.30;96.70;;;;;;4932188;29;20576;-75
2021/10/28 18:03:03;;;;;;;20.38;13.70;;;17.30;96.70;;;;;;4914184;29;20119;-75
2021/10/28 18:05:40;;;;;;;15.73;12.25;;;17.20;96.70;;;;;;4936015;29;20046;-75
2021/10/28 18:08:09;;;;;;;18.88;11.45;;;17.20;96.70;;;;;;4937540;28;20086;-75
2021/10/28 18:10:37;;;;;;;16.33;11.63;;;17.20;96.70;;;;;;4938762;29;20043;-75
2021/10/28 18:13:07;;;;;;;16.15;11.05;;;17.10;96.70;;;;;;4937532;28;20548;-74
2021/10/28 18:15:35;;;;;;;15.38;11.20;;;17.10;96.70;;;;;;4944296;29;20042;-75
2021/10/28 18:18:05;;;;;;;21.20;11.63;;;17.00;96.70;;;;;;4942103;28;20409;-75
2021/10/28 18:20:46;;;;;;;15.13;11.68;;;17.00;96.70;;;;;;4941714;28;20035;-75
2021/10/28 18:23:32;;;;;;;17.52;11.40;;;17.00;96.70;;;;;;4939708;28;20527;-76
2021/10/28 18:26:00;;;;;;;17.77;10.32;;;17.00;96.70;;;;;;4943039;28;20043;-76
2021/10/28 18:28:29;;;;;;;15.88;10.85;;;16.90;96.70;;;;;;4941706;29;20445;-76
2021/10/28 18:30:57;;;;;;;18.02;11.02;;;16.70;96.70;;;;;;4942068;29;20043;-76
2021/10/28 18:33:25;;;;;;;16.85;10.65;;;16.80;96.70;;;;;;4939556;28;20526;-75
2021/10/28 18:35:53;;;;;;;16.55;11.43;;;16.80;96.70;;;;;;4934798;29;20544;-76
2021/10/28 18:38:21;;;;;;;17.02;11.40;;;16.80;96.70;;;;;;4939632;29;20066;-76
2021/10/28 18:40:57;;;;;;;18.15;12.15;;;16.80;96.70;;;;;;4934746;28;20054;-76
2021/10/28 18:43:28;;;;;;;21.55;12.90;;;16.80;96.70;;;;;;4942854;28;20039;-76
2021/10/28 18:45:56;;;;;;;16.38;12.23;;;16.80;96.70;;;;;;4935551;28;20126;-76
2021/10/28 18:48:25;;;;;;;20.85;12.77;;;16.80;96.70;;;;;;4940748;28;20047;-76
2021/10/28 18:50:54;;;;;;;21.90;11.98;;;16.70;96.70;;;;;;4921796;29;20119;-75
2021/10/28 18:53:23;;;;;;;20.15;11.85;;;16.70;96.70;;;;;;4944015;28;20074;-76
2021/10/28 18:55:51;;;;;;;19.42;12.23;;;16.60;96.70;;;;;;4943244;28;20366;-76
2021/10/28 18:58:20;;;;;;;19.17;13.88;;;16.60;96.70;;;;;;4940288;28;20055;-75
2021/10/28 19:00:50;;;;;;;19.30;14.45;;;16.50;96.70;;;;;;4933457;28;20379;-75
2021/10/28 19:03:19;;;;;;;21.30;14.70;;;16.50;96.70;;;;;;4921452;29;20077;-75
2021/10/28 19:05:52;;;;;;;28.17;17.75;;;16.50;96.70;;;;;;4940994;29;20043;-75
2021/10/28 19:08:22;;;;;;;29.27;22.00;;;16.40;96.70;;;;;;4942505;28;20055;-76
2021/10/28 19:10:51;;;;;;;26.35;20.35;;;16.40;96.70;;;;;;4937089;29;20507;-75
2021/10/28 19:13:20;;;;;;;29.80;19.92;;;16.40;96.70;;;;;;4940785;28;20516;-75
2021/10/28 19:15:48;;;;;;;27.33;20.70;;;16.40;96.70;;;;;;4938034;29;20039;-75
2021/10/28 19:18:16;;;;;;;38.70;20.20;;;16.40;96.70;;;;;;4941937;28;20418;-74
2021/10/28 19:20:44;;;;;;;46.92;21.50;;;16.30;96.70;;;;;;4922571;29;20183;-74
2021/10/28 19:23:12;;;;;;;29.60;19.88;;;16.30;96.70;;;;;;4941053;28;20108;-75
2021/10/28 19:25:41;;;;;;;28.20;18.27;;;16.30;96.70;;;;;;4941223;28;20039;-76
2021/10/28 19:28:10;;;;;;;30.40;18.45;;;16.20;96.70;;;;;;4941153;28;20122;-73
2021/10/28 19:33:11;;;;;;;20.45;16.10;;;16.20;96.70;;;;;;4936338;29;20059;-75
2021/10/28 19:35:43;;;;;;;19.88;13.98;;;16.20;96.70;;;;;;4933570;28;20591;-75
2021/10/28 19:46:10;;;;;;;17.97;11.93;;;16.10;96.70;;;;;;4937901;29;20497;-75
2021/10/28 19:48:40;;;;;;;16.38;12.10;;;16.10;96.70;;;;;;4934412;28;20318;-75
2021/10/28 19:51:09;;;;;;;16.83;11.73;;;15.90;96.70;;;;;;4942232;29;20054;-75
2021/10/28 19:53:38;;;;;;;16.17;10.77;;;15.90;96.70;;;;;;4938863;28;20158;-75
2021/10/28 19:56:13;;;;;;;16.48;10.85;;;15.90;96.70;;;;;;4938966;29;20417;-75
2021/10/28 19:58:46;;;;;;;15.20;10.43;;;15.90;96.70;;;;;;4939672;28;20131;-75
2021/10/28 20:15:00;;;;;;;11.95;8.20;;;15.80;96.70;;;;;;4938947;29;20157;-75
2021/10/28 20:20:22;;;;;;;13.88;10.30;;;15.70;96.70;;;;;;4940130;29;20544;-75
2021/10/28 20:22:55;;;;;;;12.32;9.30;;;15.70;96.70;;;;;;4939434;28;20054;-75
2021/10/28 20:25:26;;;;;;;15.10;10.98;;;15.50;96.70;;;;;;4941458;28;20043;-75
2021/10/28 20:27:56;;;;;;;12.30;10.00;;;15.40;96.70;;;;;;4934042;29;20043;-76
2021/10/28 20:30:54;;;;;;;15.30;10.40;;;15.30;96.70;;;;;;4938001;28;20082;-76
2021/10/28 20:33:20;;;;;;;13.80;10.10;;;15.30;96.70;;;;;;4938014;28;20441;-76
2021/10/28 20:38:22;;;;;;;13.75;10.43;;;15.30;96.70;;;;;;4942231;28;20059;-75
2021/10/28 20:40:51;;;;;;;13.48;9.85;;;15.30;96.70;;;;;;4938374;29;20042;-76
2021/10/28 20:43:19;;;;;;;15.70;10.52;;;15.30;96.70;;;;;;4937468;29;20414;-76
2021/10/28 20:45:52;;;;;;;14.63;9.77;;;15.20;96.70;;;;;;4939438;28;20063;-76
2021/10/28 20:48:21;;;;;;;17.70;10.32;;;15.20;96.70;;;;;;4938371;28;20046;-74
2021/10/28 20:50:51;;;;;;;16.45;10.82;;;15.20;96.70;;;;;;4924871;29;20051;-75
2021/10/28 20:53:20;;;;;;;15.05;10.27;;;15.20;96.70;;;;;;4939594;28;20511;-76
2021/10/28 20:55:49;;;;;;;14.30;10.40;;;15.00;96.70;;;;;;4937730;29;20047;-75
2021/10/28 20:58:17;;;;;;;16.38;10.48;;;14.80;96.70;;;;;;4939854;28;20058;-75
2021/10/28 21:00:46;;;;;;;13.98;10.10;;;14.80;96.70;;;;;;4938225;28;20031;-76
2021/10/28 21:03:14;;;;;;;12.30;9.63;;;14.80;96.70;;;;;;4926634;29;20047;-74
2021/10/28 21:05:44;;;;;;;12.90;9.65;;;14.80;96.70;;;;;;4935044;28;20044;-76
2021/10/28 21:08:12;;;;;;;13.30;9.57;;;14.80;96.70;;;;;;4939119;28;20051;-76
2021/10/28 21:10:40;;;;;;;15.45;9.98;;;14.80;96.70;;;;;;4939809;29;20545;-75
2021/10/28 21:13:08;;;;;;;12.13;10.20;;;14.70;96.70;;;;;;4937397;28;20035;-75
2021/10/28 21:15:37;;;;;;;12.88;8.95;;;14.80;96.70;;;;;;4919455;28;20051;-75
2021/10/28 21:18:07;;;;;;;14.18;9.75;;;14.70;96.70;;;;;;4935569;28;20082;-75
2021/10/28 21:20:35;;;;;;;14.43;9.02;;;14.70;96.70;;;;;;4940705;28;20054;-76
2021/10/28 21:23:05;;;;;;;13.38;8.80;;;14.60;96.70;;;;;;4939899;28;20035;-75
2021/10/28 21:25:33;;;;;;;12.10;7.78;;;14.60;96.70;;;;;;4935325;28;20114;-76
2021/10/28 21:28:02;;;;;;;10.23;7.75;;;14.60;96.70;;;;;;4951841;28;20059;-76
2021/10/28 21:30:45;;;;;;;9.32;6.80;;;14.60;96.70;;;;;;4937332;28;20417;-75
2021/10/28 21:33:15;;;;;;;13.18;7.03;;;14.60;96.70;;;;;;4930915;29;20035;-75
2021/10/28 21:35:44;;;;;;;9.98;7.68;;;14.60;96.70;;;;;;4934329;28;20051;-76
2021/10/28 21:38:18;;;;;;;9.68;7.03;;;14.60;96.70;;;;;;4941809;28;20058;-75
2021/10/28 21:40:46;;;;;;;9.15;7.55;;;14.60;96.70;;;;;;4936226;29;20050;-75
2021/10/28 21:43:17;;;;;;;10.27;7.10;;;14.60;96.70;;;;;;4939206;28;20114;-76
2021/10/28 21:45:47;;;;;;;12.70;7.18;;;14.60;96.70;;;;;;4936809;28;20040;-75
2021/10/28 21:48:16;;;;;;;11.25;7.15;;;14.50;96.70;;;;;;4941559;28;20070;-76
2021/10/28 21:50:50;;;;;;;10.43;6.90;;;14.40;96.70;;;;;;4946099;28;20043;-76
2021/10/28 21:53:20;;;;;;;10.38;7.22;;;14.40;96.70;;;;;;4939844;28;20051;-75